createdAt,value
2023-07-31T00:01:16.273Z,100009.88
2023-07-31T00:06:17.820Z,100008.44
2023-07-31T00:11:19.305Z,100015.13
2023-07-31T00:16:20.984Z,100007.50
2023-07-31T00:21:22.528Z,100016.88
2023-07-31T00:26:23.989Z,100026.25
2023-07-31T00:31:25.623Z,100032.03
2023-07-31T00:36:27.126Z,100035.19
2023-07-31T00:41:28.595Z,100037.22
2023-07-31T00:46:30.117Z,100030.47
2023-07-31T00:51:31.695Z,100038.91
2023-07-31T00:56:33.398Z,100040.06
2023-07-31T01:01:34.923Z,100042.13
2023-07-31T01:06:56.179Z,100048.75
2023-07-31T01:12:01.540Z,100048.25
2023-07-31T01:17:03.126Z,100054.06
2023-07-31T01:22:36.523Z,100054.41
2023-07-31T01:27:52.887Z,100044.94
2023-07-31T01:32:57.186Z,100037.06
2023-07-31T01:37:58.684Z,100053.22
2023-07-31T01:43:00.189Z,100048.13
2023-07-31T01:48:01.649Z,100053.50
2023-07-31T01:53:03.367Z,100056.34
2023-07-31T01:58:04.910Z,100053.94
2023-07-31T02:03:06.491Z,100051.16
2023-07-31T02:08:08.050Z,100054.00
2023-07-31T02:13:09.674Z,100058.66
2023-07-31T02:18:11.144Z,100059.66
2023-07-31T02:23:12.845Z,100052.47
2023-07-31T02:28:14.336Z,100050.78
2023-07-31T02:33:17.345Z,100060.75
2023-07-31T02:38:18.871Z,100048.44
2023-07-31T02:43:20.336Z,100055.56
2023-07-31T02:48:21.870Z,100047.66
2023-07-31T02:53:24.209Z,100048.66
2023-07-31T02:58:25.772Z,100051.50
2023-07-31T03:03:27.482Z,100056.88
2023-07-31T03:08:29.022Z,100062.28
2023-07-31T03:13:30.584Z,100057.09
2023-07-31T03:18:32.099Z,100084.00
2023-07-31T03:23:33.627Z,100078.69
2023-07-31T03:28:35.351Z,100094.16
2023-07-31T03:33:36.809Z,100097.72
2023-07-31T03:38:38.296Z,100104.97
2023-07-31T03:43:39.750Z,100098.00
2023-07-31T03:48:41.273Z,100089.91
2023-07-31T03:53:42.760Z,100099.06
2023-07-31T03:58:44.267Z,100107.81
2023-07-31T04:03:45.747Z,100111.50
2023-07-31T04:08:47.192Z,100120.50
2023-07-31T04:13:48.653Z,100100.88
2023-07-31T04:18:50.240Z,100117.88
2023-07-31T04:23:51.802Z,100116.06
2023-07-31T04:28:53.364Z,100112.38
2023-07-31T04:33:54.809Z,100112.09
2023-07-31T04:38:56.786Z,100124.34
2023-07-31T04:43:58.432Z,100131.97
2023-07-31T04:48:59.973Z,100129.81
2023-07-31T04:54:01.521Z,100126.78
2023-07-31T04:59:02.957Z,100127.19
2023-07-31T05:04:04.669Z,100125.91
2023-07-31T05:09:06.237Z,100129.03
2023-07-31T05:14:08.694Z,100121.53
2023-07-31T05:19:10.197Z,100123.06
2023-07-31T05:24:11.967Z,100129.03
2023-07-31T05:29:13.449Z,100127.06
2023-07-31T05:34:14.946Z,100138.56
2023-07-31T05:39:16.482Z,100145.56
2023-07-31T05:44:18.043Z,100143.59
2023-07-31T05:49:19.568Z,100143.38
2023-07-31T05:54:21.055Z,100154.00
2023-07-31T05:59:22.532Z,100143.09
2023-07-31T06:04:26.552Z,100144.88
2023-07-31T06:09:28.207Z,100146.41
2023-07-31T06:14:29.666Z,100148.88
2023-07-31T06:19:31.141Z,100148.56
2023-07-31T06:24:32.638Z,100155.34
2023-07-31T06:29:34.153Z,100149.22
2023-07-31T06:34:35.613Z,100154.69
2023-07-31T06:39:37.157Z,100150.03
2023-07-31T06:44:38.635Z,100142.94
2023-07-31T06:49:40.142Z,100142.94
2023-07-31T06:54:41.570Z,100146.75
2023-07-31T06:59:43.004Z,100144.59
2023-07-31T07:04:44.485Z,100146.69
2023-07-31T07:09:45.945Z,100161.19
2023-07-31T07:14:48.843Z,100164.19
2023-07-31T07:19:50.402Z,100170.53
2023-07-31T07:24:51.973Z,100168.66
2023-07-31T07:29:53.896Z,100173.03
2023-07-31T07:34:56.571Z,100173.78
2023-07-31T07:39:58.594Z,100162.00
2023-07-31T07:45:00.107Z,100167.16
2023-07-31T07:50:01.658Z,100165.31
2023-07-31T07:55:04.706Z,100172.28
2023-07-31T08:00:07.159Z,100169.91
2023-07-31T08:05:09.267Z,100175.41
2023-07-31T08:10:10.870Z,100163.53
2023-07-31T08:15:12.394Z,100166.56
2023-07-31T08:20:13.909Z,100170.44
2023-07-31T08:25:15.403Z,100171.94
2023-07-31T08:30:16.872Z,100169.81
2023-07-31T08:35:18.394Z,100169.16
2023-07-31T08:40:20.040Z,100165.19
2023-07-31T08:45:21.551Z,100167.41
2023-07-31T08:50:23.068Z,100162.19
2023-07-31T08:55:25.521Z,100153.28
2023-07-31T09:00:28.033Z,100153.78
2023-07-31T09:05:31.720Z,100156.09
2023-07-31T09:10:33.181Z,100149.31
2023-07-31T09:15:38.240Z,100148.09
2023-07-31T09:20:39.949Z,100153.44
2023-07-31T09:25:45.456Z,100149.47
2023-07-31T09:30:48.369Z,100148.88
2023-07-31T09:35:49.927Z,100145.19
2023-07-31T09:40:52.017Z,100143.63
2023-07-31T09:45:58.018Z,100143.19
2023-07-31T09:51:05.713Z,100140.84
2023-07-31T09:56:07.369Z,100139.66
2023-07-31T10:01:09.705Z,100141.84
2023-07-31T10:06:11.719Z,100128.06
2023-07-31T10:11:15.298Z,100118.81
2023-07-31T10:16:17.874Z,100112.09
2023-07-31T10:21:19.529Z,100107.09
2023-07-31T10:26:24.278Z,100108.41
2023-07-31T10:31:26.315Z,100112.22
2023-07-31T10:36:28.212Z,100097.31
2023-07-31T10:41:34.183Z,100100.38
2023-07-31T10:46:36.063Z,100083.75
2023-07-31T10:51:37.725Z,100085.81
2023-07-31T10:56:40.293Z,100085.91
2023-07-31T11:01:58.055Z,100080.34
2023-07-31T11:07:02.563Z,100082.63
2023-07-31T11:12:04.376Z,100080.25
2023-07-31T11:17:09.231Z,100088.94
2023-07-31T11:22:11.577Z,100077.22
2023-07-31T11:27:13.022Z,100078.63
2023-07-31T11:32:18.979Z,100072.63
2023-07-31T11:37:20.978Z,100084.25
2023-07-31T11:42:23.040Z,100077.38
2023-07-31T11:47:27.180Z,100082.69
2023-07-31T11:52:32.297Z,100074.31
2023-07-31T11:57:34.234Z,100071.69
2023-07-31T12:02:36.245Z,100086.25
2023-07-31T12:07:52.126Z,100066.13
2023-07-31T12:12:58.198Z,100076.53
2023-07-31T12:18:00.012Z,100068.66
2023-07-31T12:23:01.789Z,100069.25
2023-07-31T12:28:12.977Z,100066.75
2023-07-31T12:33:16.080Z,100057.84
2023-07-31T12:38:17.603Z,100042.34
2023-07-31T12:43:19.081Z,100058.78
2023-07-31T12:48:20.683Z,100036.56
2023-07-31T12:53:22.160Z,100034.50
2023-07-31T12:58:24.014Z,100026.28
2023-07-31T13:03:25.606Z,100019.41
2023-07-31T13:08:27.157Z,100006.09
2023-07-31T13:13:30.488Z,100014.06
2023-07-31T13:18:32.133Z,100005.28
2023-07-31T13:23:33.631Z,100014.69
2023-07-31T13:28:35.227Z,100010.88
2023-07-31T13:33:38.794Z,100005.19
2023-07-31T13:38:41.009Z,100006.56
2023-07-31T13:43:42.447Z,100007.53
2023-07-31T13:48:43.926Z,100000.94
2023-07-31T13:53:45.374Z,100005.41
2023-07-31T13:58:46.820Z,99999.09
2023-07-31T14:03:48.311Z,99994.44
2023-07-31T14:08:49.808Z,99999.66
2023-07-31T14:13:52.133Z,100005.47
2023-07-31T14:18:55.023Z,99991.25
2023-07-31T14:23:56.814Z,99990.44
2023-07-31T14:28:58.306Z,99994.50
2023-07-31T14:33:59.756Z,99986.28
2023-07-31T14:39:01.239Z,99978.13
2023-07-31T14:44:02.748Z,99964.91
2023-07-31T14:49:04.270Z,99963.16
2023-07-31T14:54:05.816Z,99961.31
2023-07-31T14:59:09.119Z,99962.19
2023-07-31T15:04:10.671Z,99957.38
2023-07-31T15:09:12.230Z,99962.06
2023-07-31T15:14:16.250Z,99948.72
2023-07-31T15:19:18.741Z,99947.00
2023-07-31T15:24:21.517Z,99942.34
2023-07-31T15:29:23.073Z,99954.34
2023-07-31T15:34:25.705Z,99942.84
2023-07-31T15:39:27.199Z,99944.78
2023-07-31T15:44:28.956Z,99948.66
2023-07-31T15:49:30.401Z,99939.00
2023-07-31T15:54:33.024Z,99949.22
2023-07-31T15:59:34.458Z,99943.22
2023-07-31T16:04:38.315Z,99935.31
2023-07-31T16:09:39.842Z,99929.31
2023-07-31T16:14:41.668Z,99925.75
2023-07-31T16:19:43.144Z,99923.72
2023-07-31T16:24:44.707Z,99923.03
2023-07-31T16:29:49.232Z,99910.66
2023-07-31T16:34:50.739Z,99911.72
2023-07-31T16:39:55.153Z,99912.13
2023-07-31T16:44:56.600Z,99908.66
2023-07-31T16:49:58.171Z,99910.59
2023-07-31T16:54:59.728Z,99909.28
2023-07-31T17:00:01.267Z,99918.25
2023-07-31T17:05:02.886Z,99917.69
2023-07-31T17:10:04.762Z,99925.13
2023-07-31T17:15:06.991Z,99922.59
2023-07-31T17:20:09.199Z,99919.13
2023-07-31T17:25:10.770Z,99916.63
2023-07-31T17:30:12.662Z,99905.13
2023-07-31T17:35:14.309Z,99906.09
2023-07-31T17:40:15.996Z,99901.94
2023-07-31T17:45:20.063Z,99909.28
2023-07-31T17:50:21.487Z,99897.69
2023-07-31T17:55:22.939Z,99895.06
2023-07-31T18:00:24.448Z,99894.59
2023-07-31T18:05:27.017Z,99897.44
2023-07-31T18:10:28.551Z,99895.13
2023-07-31T18:15:30.045Z,99903.63
2023-07-31T18:20:31.483Z,99897.53
2023-07-31T18:25:32.965Z,99898.78
2023-07-31T18:30:34.483Z,99902.63
2023-07-31T18:35:39.858Z,99900.28
2023-07-31T18:40:41.350Z,99897.88
2023-07-31T18:45:42.825Z,99906.16
2023-07-31T18:50:44.656Z,99906.47
2023-07-31T18:55:46.173Z,99907.72
2023-07-31T19:00:48.105Z,99897.38
2023-07-31T19:05:50.433Z,99901.13
2023-07-31T19:10:51.906Z,99909.50
2023-07-31T19:15:54.930Z,99899.94
2023-07-31T19:20:56.664Z,99908.22
2023-07-31T19:25:58.176Z,99901.16
2023-07-31T19:31:00.254Z,99889.75
2023-07-31T19:36:01.785Z,99871.94
2023-07-31T19:41:03.420Z,99862.47
2023-07-31T19:46:04.933Z,99857.25
2023-07-31T19:51:06.791Z,99864.56
2023-07-31T19:56:08.339Z,99846.81
2023-07-31T20:01:10.801Z,99846.91
2023-07-31T20:06:12.367Z,99841.84
2023-07-31T20:11:13.855Z,99830.47
2023-07-31T20:16:19.010Z,99840.38
2023-07-31T20:21:20.470Z,99847.63
2023-07-31T20:26:21.996Z,99838.81
2023-07-31T20:31:23.576Z,99834.56
2023-07-31T20:36:25.115Z,99826.66
2023-07-31T20:41:26.577Z,99817.88
2023-07-31T20:46:28.032Z,99810.75
2023-07-31T20:51:29.548Z,99804.75
2023-07-31T20:56:31.030Z,99803.88
2023-07-31T21:01:32.579Z,99791.59
2023-07-31T21:06:34.158Z,99775.50
2023-07-31T21:11:35.663Z,99781.09
2023-07-31T21:16:37.419Z,99774.13
2023-07-31T21:21:39.062Z,99771.78
2023-07-31T21:26:40.705Z,99770.22
2023-07-31T21:31:42.406Z,99771.34
2023-07-31T21:36:43.921Z,99765.25
2023-07-31T21:41:45.405Z,99770.00
2023-07-31T21:46:47.079Z,99770.38
2023-07-31T21:51:48.564Z,99766.78
2023-07-31T21:56:50.049Z,99764.38
2023-07-31T22:01:51.508Z,99755.56
2023-07-31T22:06:53.088Z,99739.56
2023-07-31T22:11:54.581Z,99738.78
2023-07-31T22:16:56.087Z,99731.75
2023-07-31T22:21:58.024Z,99736.34
2023-07-31T22:26:59.494Z,99733.81
2023-07-31T22:32:00.924Z,99722.34
2023-07-31T22:37:02.385Z,99719.66
2023-07-31T22:42:04.045Z,99713.66
2023-07-31T22:47:05.917Z,99710.09
2023-07-31T22:52:07.735Z,99708.44
2023-07-31T22:57:09.216Z,99697.84
2023-07-31T23:02:10.720Z,99692.63
2023-07-31T23:07:12.179Z,99686.38
2023-07-31T23:12:13.633Z,99679.50
2023-07-31T23:17:15.302Z,99671.59
2023-07-31T23:22:16.885Z,99671.59
2023-07-31T23:27:18.333Z,99671.69
2023-07-31T23:32:20.550Z,99670.91
2023-07-31T23:37:22.070Z,99668.28
2023-07-31T23:42:25.486Z,99664.81
2023-07-31T23:47:26.994Z,99655.94
2023-07-31T23:52:28.558Z,99653.41
2023-07-31T23:57:30.519Z,99639.34
